createdAt,value
2022-10-09T00:01:28.685Z,5.25
2022-10-09T00:03:58.052Z,5.82
2022-10-09T00:06:32.364Z,4.88
2022-10-09T00:09:02.124Z,4.72
2022-10-09T00:11:32.052Z,5.15
2022-10-09T00:13:59.971Z,6.55
2022-10-09T00:16:30.418Z,6.25
2022-10-09T00:18:59.324Z,4.78
2022-10-09T00:21:29.620Z,6.72
2022-10-09T00:23:59.440Z,5.03
2022-10-09T00:26:30.288Z,4.70
2022-10-09T00:28:57.764Z,4.47
2022-10-09T00:31:25.643Z,4.28
2022-10-09T00:33:53.385Z,5.07
2022-10-09T00:36:23.484Z,4.85
2022-10-09T00:38:51.266Z,6.13
2022-10-09T00:41:23.962Z,4.85
2022-10-09T00:43:55.751Z,5.03
2022-10-09T00:46:42.042Z,4.72
2022-10-09T00:49:21.062Z,4.03
2022-10-09T00:51:52.133Z,5.13
2022-10-09T00:54:22.873Z,5.32
2022-10-09T00:56:52.077Z,5.43
2022-10-09T00:59:20.121Z,5.03
2022-10-09T01:01:50.856Z,4.45
2022-10-09T01:04:20.576Z,11.95
2022-10-09T01:07:20.342Z,7.20
2022-10-09T01:09:56.779Z,4.72
2022-10-09T01:12:42.608Z,4.72
2022-10-09T01:18:32.066Z,5.53
2022-10-09T01:21:21.011Z,4.82
2022-10-09T01:24:16.166Z,4.38
2022-10-09T01:26:55.913Z,4.63
2022-10-09T01:29:27.007Z,4.93
2022-10-09T01:31:57.394Z,3.92
2022-10-09T01:34:27.938Z,4.90
2022-10-09T01:36:57.726Z,8.98
2022-10-09T01:39:26.913Z,4.78
2022-10-09T01:41:55.696Z,3.83
2022-10-09T01:44:30.956Z,5.97
2022-10-09T01:47:01.366Z,5.13
2022-10-09T01:49:40.795Z,6.82
2022-10-09T01:52:14.155Z,4.13
2022-10-09T01:57:49.449Z,5.68
2022-10-09T02:00:18.818Z,4.28
2022-10-09T02:02:48.376Z,5.68
2022-10-09T02:05:22.531Z,5.38
2022-10-09T02:07:51.807Z,4.53
2022-10-09T02:10:23.529Z,4.80
2022-10-09T02:12:57.881Z,5.20
2022-10-09T02:15:32.148Z,3.83
2022-10-09T02:18:07.867Z,5.63
2022-10-09T02:20:40.905Z,4.07
2022-10-09T02:23:10.415Z,4.75
2022-10-09T02:25:38.906Z,3.78
2022-10-09T02:28:08.229Z,4.68
2022-10-09T02:30:48.605Z,5.57
2022-10-09T02:33:18.656Z,4.78
2022-10-09T02:35:46.197Z,4.28
2022-10-09T02:38:16.292Z,4.15
2022-10-09T02:40:43.607Z,4.45
2022-10-09T02:43:12.309Z,4.78
2022-10-09T02:45:43.696Z,5.03
2022-10-09T02:48:11.077Z,4.57
2022-10-09T02:50:38.676Z,4.28
2022-10-09T02:53:06.188Z,3.92
2022-10-09T02:55:36.457Z,4.70
2022-10-09T02:58:04.287Z,4.70
2022-10-09T03:00:31.749Z,5.00
2022-10-09T03:03:03.621Z,4.50
2022-10-09T03:05:34.476Z,4.53
2022-10-09T03:08:01.908Z,5.13
2022-10-09T03:10:29.348Z,4.20
2022-10-09T03:12:56.858Z,5.22
2022-10-09T03:15:24.209Z,4.45
2022-10-09T03:17:51.647Z,5.43
2022-10-09T03:20:21.609Z,5.25
2022-10-09T03:22:52.158Z,5.75
2022-10-09T03:25:24.085Z,4.93
2022-10-09T03:27:51.397Z,3.97
2022-10-09T03:30:18.785Z,5.07
2022-10-09T03:32:48.892Z,4.28
2022-10-09T03:35:17.783Z,5.15
2022-10-09T03:37:45.293Z,3.88
2022-10-09T03:40:14.721Z,5.10
2022-10-09T03:42:44.965Z,5.05
2022-10-09T03:45:14.556Z,4.72
2022-10-09T03:47:48.972Z,5.18
2022-10-09T03:50:16.757Z,6.03
2022-10-09T03:52:45.206Z,5.45
2022-10-09T03:55:14.665Z,4.68
2022-10-09T03:57:42.461Z,5.07
2022-10-09T04:00:12.553Z,4.45
2022-10-09T04:02:43.078Z,4.90
2022-10-09T04:05:13.899Z,5.13
2022-10-09T04:07:41.262Z,4.97
2022-10-09T04:10:11.445Z,5.90
2022-10-09T04:12:39.306Z,6.07
2022-10-09T04:15:07.140Z,4.95
2022-10-09T04:17:35.545Z,4.32
2022-10-09T04:20:03.332Z,4.97
2022-10-09T04:22:30.941Z,4.85
2022-10-09T04:25:03.093Z,5.25
2022-10-09T04:27:33.165Z,5.00
2022-10-09T04:30:02.879Z,5.70
2022-10-09T04:32:30.165Z,4.72
2022-10-09T04:34:57.719Z,4.72
2022-10-09T04:37:25.129Z,4.43
2022-10-09T04:39:54.984Z,4.47
2022-10-09T04:42:22.388Z,4.65
2022-10-09T04:44:52.235Z,4.03
2022-10-09T04:47:19.519Z,4.68
2022-10-09T04:49:49.634Z,3.97
2022-10-09T04:52:19.226Z,5.43
2022-10-09T04:54:46.669Z,4.80
2022-10-09T04:57:14.173Z,5.15
2022-10-09T04:59:43.816Z,4.78
2022-10-09T05:02:11.311Z,5.97
2022-10-09T05:04:39.009Z,5.82
2022-10-09T05:07:06.322Z,4.57
2022-10-09T05:09:35.906Z,4.68
2022-10-09T05:12:03.369Z,4.80
2022-10-09T05:14:30.800Z,4.65
2022-10-09T05:17:13.773Z,4.47
2022-10-09T05:19:42.074Z,4.90
2022-10-09T05:22:11.827Z,5.32
2022-10-09T05:24:39.297Z,5.30
2022-10-09T05:27:09.036Z,4.95
2022-10-09T05:29:36.461Z,4.72
2022-10-09T05:32:04.155Z,4.88
2022-10-09T05:34:33.221Z,4.95
2022-10-09T05:37:02.990Z,4.72
2022-10-09T05:39:30.343Z,7.05
2022-10-09T05:42:00.496Z,4.85
2022-10-09T05:44:27.921Z,4.60
2022-10-09T05:46:57.380Z,4.85
2022-10-09T05:49:27.479Z,4.47
2022-10-09T05:51:55.998Z,4.80
2022-10-09T05:54:23.359Z,5.32
2022-10-09T05:56:52.918Z,4.88
2022-10-09T05:59:20.359Z,5.60
2022-10-09T06:01:50.668Z,5.70
2022-10-09T06:04:23.877Z,4.63
2022-10-09T06:06:51.826Z,5.10
2022-10-09T06:09:25.475Z,4.82
2022-10-09T06:11:54.606Z,16.60
2022-10-09T06:14:22.651Z,44.97
2022-10-09T06:16:50.863Z,77.03
2022-10-09T06:19:27.343Z,81.50
2022-10-09T06:21:54.651Z,74.35
2022-10-09T06:24:28.748Z,84.47
2022-10-09T06:26:57.824Z,85.47
2022-10-09T06:29:27.886Z,74.45
2022-10-09T06:31:57.609Z,81.57
2022-10-09T06:34:25.189Z,70.28
2022-10-09T06:36:52.486Z,66.68
2022-10-09T06:39:19.796Z,60.20
2022-10-09T06:41:47.285Z,59.55
2022-10-09T06:44:30.766Z,45.95
2022-10-09T06:46:58.116Z,52.67
2022-10-09T06:49:28.102Z,56.85
2022-10-09T06:51:55.407Z,53.72
2022-10-09T06:54:22.957Z,41.47
2022-10-09T06:56:54.517Z,40.35
2022-10-09T06:59:21.773Z,38.95
2022-10-09T07:01:49.269Z,39.38
2022-10-09T07:04:19.148Z,30.17
2022-10-09T07:06:49.181Z,25.88
2022-10-09T07:09:16.738Z,22.27
2022-10-09T07:11:49.330Z,20.80
2022-10-09T07:14:18.436Z,11.75
2022-10-09T07:16:48.345Z,12.48
2022-10-09T07:19:17.588Z,13.60
2022-10-09T07:21:47.347Z,12.98
2022-10-09T07:24:15.997Z,11.32
2022-10-09T07:26:46.137Z,10.98
2022-10-09T07:29:15.489Z,7.75
2022-10-09T07:31:42.874Z,9.30
2022-10-09T07:34:13.957Z,9.27
2022-10-09T07:36:41.306Z,8.40
2022-10-09T07:39:08.912Z,6.60
2022-10-09T07:41:40.967Z,9.35
2022-10-09T07:44:08.372Z,7.82
2022-10-09T07:46:36.092Z,6.50
2022-10-09T07:49:04.571Z,6.03
2022-10-09T07:51:32.510Z,6.32
2022-10-09T07:54:01.971Z,5.45
2022-10-09T07:56:33.115Z,5.85
2022-10-09T07:59:04.179Z,8.10
2022-10-09T08:01:33.396Z,5.15
2022-10-09T08:04:03.912Z,6.45
2022-10-09T08:06:31.804Z,4.80
2022-10-09T08:09:00.881Z,5.40
2022-10-09T08:11:29.657Z,4.72
2022-10-09T08:13:57.649Z,5.43
2022-10-09T08:16:27.583Z,5.05
2022-10-09T08:19:00.103Z,4.75
2022-10-09T08:21:28.682Z,4.63
2022-10-09T08:23:58.605Z,5.50
2022-10-09T08:26:28.933Z,4.78
2022-10-09T08:29:02.014Z,4.13
2022-10-09T08:34:01.411Z,5.90
2022-10-09T08:36:29.517Z,4.97
2022-10-09T08:38:57.156Z,4.60
2022-10-09T08:41:39.696Z,4.90
2022-10-09T08:44:53.357Z,5.40
2022-10-09T08:47:29.256Z,4.78
2022-10-09T08:50:11.521Z,4.50
2022-10-09T08:52:58.421Z,5.30
2022-10-09T08:55:28.762Z,3.85
2022-10-09T08:58:05.427Z,4.10
2022-10-09T09:00:46.549Z,3.83
2022-10-09T09:03:36.979Z,4.72
2022-10-09T09:06:12.674Z,5.40
2022-10-09T09:08:52.364Z,6.40
2022-10-09T09:11:38.194Z,5.15
2022-10-09T09:14:11.409Z,5.28
2022-10-09T09:19:57.175Z,5.90
2022-10-09T09:22:27.219Z,5.68
2022-10-09T09:24:57.351Z,7.18
2022-10-09T09:27:39.340Z,9.02
2022-10-09T09:30:13.022Z,5.32
2022-10-09T09:32:52.083Z,6.53
2022-10-09T09:35:36.026Z,5.18
2022-10-09T09:38:03.514Z,5.35
2022-10-09T09:40:38.114Z,4.13
2022-10-09T09:43:25.603Z,3.88
2022-10-09T09:45:55.633Z,4.53
2022-10-09T09:48:28.897Z,5.40
2022-10-09T09:51:23.466Z,4.40
2022-10-09T09:53:54.543Z,5.13
2022-10-09T09:56:59.601Z,4.43
2022-10-09T09:59:31.110Z,5.50
2022-10-09T10:02:13.664Z,4.85
2022-10-09T10:04:57.743Z,4.37
2022-10-09T10:07:32.272Z,3.67
2022-10-09T10:10:25.527Z,6.60
2022-10-09T10:12:55.061Z,3.28
2022-10-09T10:15:32.832Z,4.15
2022-10-09T10:18:21.534Z,3.08
2022-10-09T10:20:54.951Z,4.07
2022-10-09T10:23:35.071Z,3.75
2022-10-09T10:26:14.093Z,4.18
2022-10-09T10:29:09.250Z,5.15
2022-10-09T10:31:54.802Z,4.85
2022-10-09T10:34:30.833Z,3.15
2022-10-09T10:37:16.170Z,4.22
2022-10-09T10:39:53.071Z,4.65
2022-10-09T10:42:47.910Z,4.07
2022-10-09T10:45:20.819Z,4.22
2022-10-09T10:47:58.510Z,4.18
2022-10-09T10:50:36.402Z,8.27
2022-10-09T10:53:27.583Z,9.20
2022-10-09T10:56:10.126Z,6.25
2022-10-09T10:58:56.261Z,6.75
2022-10-09T11:01:44.190Z,8.00
2022-10-09T11:04:33.040Z,9.02
2022-10-09T11:07:11.631Z,12.07
2022-10-09T11:09:44.422Z,6.97
2022-10-09T11:12:29.960Z,7.78
2022-10-09T11:15:26.387Z,10.18
2022-10-09T11:18:22.141Z,9.07
2022-10-09T11:21:08.250Z,7.50
2022-10-09T11:23:43.952Z,9.68
2022-10-09T11:26:36.232Z,10.80
2022-10-09T11:29:23.105Z,10.27
2022-10-09T11:31:56.005Z,6.57
2022-10-09T11:34:37.274Z,9.45
2022-10-09T11:37:12.864Z,7.68
2022-10-09T11:39:41.403Z,7.15
2022-10-09T11:42:15.892Z,4.70
2022-10-09T11:45:36.996Z,5.20
2022-10-09T11:48:42.991Z,6.03
2022-10-09T11:51:33.521Z,5.95
2022-10-09T11:54:02.547Z,5.87
2022-10-09T11:56:32.148Z,4.53
2022-10-09T11:59:05.752Z,4.35
2022-10-09T12:01:36.108Z,3.83
2022-10-09T12:04:20.881Z,5.70
2022-10-09T12:07:07.191Z,5.20
2022-10-09T12:09:45.232Z,4.57
2022-10-09T12:12:15.520Z,4.22
2022-10-09T12:14:46.141Z,4.57
2022-10-09T12:17:22.203Z,6.53
2022-10-09T12:20:00.772Z,4.10
2022-10-09T12:22:41.434Z,3.58
2022-10-09T12:25:19.716Z,4.05
2022-10-09T12:27:52.878Z,4.60
2022-10-09T12:33:01.032Z,4.15
2022-10-09T12:35:44.453Z,4.15
2022-10-09T12:40:57.821Z,5.20
2022-10-09T12:43:25.463Z,3.15
2022-10-09T12:45:54.522Z,4.05
2022-10-09T12:48:26.011Z,3.50
2022-10-09T12:50:54.694Z,2.67
2022-10-09T12:53:25.555Z,3.85
2022-10-09T12:56:00.734Z,3.25
2022-10-09T12:58:54.506Z,3.50
2022-10-09T13:04:00.912Z,8.32
2022-10-09T13:06:51.622Z,4.45
2022-10-09T13:09:27.984Z,3.45
2022-10-09T13:12:23.411Z,4.47
2022-10-09T13:14:57.561Z,5.43
2022-10-09T13:17:35.426Z,3.10
2022-10-09T13:20:12.207Z,2.47
2022-10-09T13:22:40.353Z,9.57
2022-10-09T13:25:09.804Z,3.95
2022-10-09T13:27:39.919Z,4.70
2022-10-09T13:30:08.279Z,3.33
2022-10-09T13:32:36.863Z,4.20
2022-10-09T13:35:04.506Z,4.07
2022-10-09T13:37:31.818Z,4.57
2022-10-09T13:40:00.266Z,2.58
2022-10-09T13:42:32.416Z,4.70
2022-10-09T13:44:59.854Z,3.17
2022-10-09T13:47:27.720Z,4.10
2022-10-09T13:49:55.199Z,3.20
2022-10-09T13:52:22.565Z,5.78
2022-10-09T13:54:51.686Z,4.72
2022-10-09T13:57:19.403Z,3.38
2022-10-09T13:59:46.763Z,2.83
2022-10-09T14:02:15.211Z,3.00
2022-10-09T14:04:42.749Z,5.60
2022-10-09T14:07:10.405Z,4.75
2022-10-09T14:09:38.712Z,2.30
2022-10-09T14:12:06.298Z,3.95
2022-10-09T14:14:34.491Z,3.03
2022-10-09T14:17:03.039Z,4.35
2022-10-09T14:19:30.402Z,3.55
2022-10-09T14:21:58.663Z,2.58
2022-10-09T14:24:26.361Z,5.10
2022-10-09T14:26:59.575Z,2.70
2022-10-09T14:29:27.916Z,1.65
2022-10-09T14:31:55.915Z,3.22
2022-10-09T14:34:23.282Z,3.58
2022-10-09T14:36:50.796Z,2.97
2022-10-09T14:39:18.360Z,2.50
2022-10-09T14:41:45.985Z,3.60
2022-10-09T14:44:13.332Z,3.30
2022-10-09T14:46:40.921Z,2.78
2022-10-09T14:49:10.229Z,3.42
2022-10-09T14:51:39.671Z,4.40
2022-10-09T14:54:08.775Z,3.50
2022-10-09T14:56:36.607Z,4.80
2022-10-09T14:59:06.094Z,13.32
2022-10-09T15:01:34.707Z,6.70
2022-10-09T15:04:02.766Z,9.75
2022-10-09T15:06:30.713Z,13.00
2022-10-09T15:09:04.627Z,7.50
2022-10-09T15:11:38.601Z,11.30
2022-10-09T15:14:08.009Z,6.20
2022-10-09T15:16:35.527Z,8.00
2022-10-09T15:19:05.473Z,5.35
2022-10-09T15:21:34.767Z,7.05
2022-10-09T15:24:06.014Z,7.72
2022-10-09T15:26:38.343Z,5.25
2022-10-09T15:29:12.175Z,6.15
2022-10-09T15:31:41.145Z,5.47
2022-10-09T15:34:15.767Z,5.70
2022-10-09T15:36:45.847Z,5.30
2022-10-09T15:39:15.080Z,4.57
2022-10-09T15:41:44.013Z,4.25
2022-10-09T15:44:21.748Z,3.35
2022-10-09T15:46:50.206Z,3.83
2022-10-09T15:49:17.880Z,5.07
2022-10-09T15:51:46.596Z,4.65
2022-10-09T15:54:15.368Z,4.75
2022-10-09T15:56:43.070Z,4.20
2022-10-09T15:59:16.798Z,3.95
2022-10-09T16:01:44.403Z,3.33
2022-10-09T16:04:12.152Z,3.50
2022-10-09T16:06:40.228Z,3.90
2022-10-09T16:09:08.985Z,5.13
2022-10-09T16:11:37.508Z,3.22
2022-10-09T16:14:05.122Z,3.67
2022-10-09T16:16:33.891Z,4.32
2022-10-09T16:19:05.538Z,3.55
2022-10-09T16:21:33.501Z,4.15
2022-10-09T16:24:10.689Z,5.20
2022-10-09T16:26:38.724Z,4.13
2022-10-09T16:29:06.647Z,5.28
2022-10-09T16:31:35.206Z,5.20
2022-10-09T16:34:08.167Z,3.75
2022-10-09T16:36:35.621Z,3.85
2022-10-09T16:39:03.143Z,4.20
2022-10-09T16:41:39.653Z,4.63
2022-10-09T16:44:14.337Z,4.35
2022-10-09T16:46:41.691Z,4.75
2022-10-09T16:49:20.095Z,4.03
2022-10-09T16:51:50.374Z,4.88
2022-10-09T16:54:17.674Z,4.55
2022-10-09T16:56:46.133Z,4.13
2022-10-09T16:59:15.836Z,4.32
2022-10-09T17:01:47.695Z,4.15
2022-10-09T17:04:15.787Z,4.10
2022-10-09T17:06:44.217Z,3.80
2022-10-09T17:09:14.084Z,4.97
2022-10-09T17:11:43.924Z,5.22
2022-10-09T17:14:12.279Z,4.22
2022-10-09T17:16:42.181Z,4.88
2022-10-09T17:19:09.679Z,3.90
2022-10-09T17:21:37.337Z,4.32
2022-10-09T17:24:06.302Z,3.15
2022-10-09T17:26:34.903Z,3.28
2022-10-09T17:29:04.728Z,4.18
2022-10-09T17:31:34.633Z,3.55
2022-10-09T17:34:04.180Z,3.83
2022-10-09T17:36:34.903Z,4.40
2022-10-09T17:39:03.380Z,3.58
2022-10-09T17:41:34.067Z,4.55
2022-10-09T17:44:01.503Z,3.33
2022-10-09T17:46:32.038Z,3.90
2022-10-09T17:49:01.086Z,6.22
2022-10-09T17:51:36.201Z,2.72
2022-10-09T17:54:18.128Z,3.92
2022-10-09T17:56:46.632Z,3.42
2022-10-09T17:59:16.127Z,3.38
2022-10-09T18:01:44.996Z,3.58
2022-10-09T18:04:17.769Z,3.05
2022-10-09T18:06:45.755Z,2.90
2022-10-09T18:09:13.368Z,3.15
2022-10-09T18:11:44.257Z,4.63
2022-10-09T18:14:12.087Z,2.90
2022-10-09T18:16:40.540Z,3.72
2022-10-09T18:19:12.633Z,3.05
2022-10-09T18:21:43.019Z,3.80
2022-10-09T18:24:12.362Z,3.17
2022-10-09T18:26:40.972Z,4.18
2022-10-09T18:29:08.438Z,4.65
2022-10-09T18:31:38.631Z,3.72
2022-10-09T18:34:05.995Z,3.05
2022-10-09T18:36:36.153Z,4.47
2022-10-09T18:39:09.654Z,3.22
2022-10-09T18:41:37.773Z,2.00
2022-10-09T18:44:06.919Z,3.85
2022-10-09T18:46:37.804Z,3.45
2022-10-09T18:49:11.871Z,2.80
2022-10-09T18:51:42.429Z,3.55
2022-10-09T18:54:15.734Z,4.03
2022-10-09T18:56:46.975Z,3.42
2022-10-09T18:59:18.699Z,3.53
2022-10-09T19:01:48.697Z,4.95
2022-10-09T19:04:19.080Z,3.38
2022-10-09T19:06:46.490Z,3.17
2022-10-09T19:09:14.969Z,3.67
2022-10-09T19:11:42.361Z,3.38
2022-10-09T19:14:09.811Z,4.78
2022-10-09T19:16:37.191Z,3.30
2022-10-09T19:19:04.602Z,3.35
2022-10-09T19:21:31.909Z,5.43
2022-10-09T19:24:06.147Z,4.45
2022-10-09T19:26:35.239Z,5.53
2022-10-09T19:29:03.038Z,3.05
2022-10-09T19:31:34.442Z,3.95
2022-10-09T19:34:05.381Z,4.93
2022-10-09T19:36:34.440Z,4.38
2022-10-09T19:39:05.896Z,3.42
2022-10-09T19:41:35.512Z,3.25
2022-10-09T19:44:05.097Z,3.13
2022-10-09T19:46:32.458Z,3.75
2022-10-09T19:49:03.677Z,3.60
2022-10-09T19:51:35.907Z,3.42
2022-10-09T19:54:06.070Z,4.05
2022-10-09T19:56:34.866Z,3.67
2022-10-09T19:59:07.850Z,4.50
2022-10-09T20:01:40.238Z,3.78
2022-10-09T20:04:10.001Z,4.15
2022-10-09T20:06:40.039Z,5.18
2022-10-09T20:09:08.631Z,5.45
2022-10-09T20:11:37.768Z,4.32
2022-10-09T20:14:05.777Z,3.90
2022-10-09T20:16:33.744Z,4.00
2022-10-09T20:19:02.494Z,3.15
2022-10-09T20:21:32.065Z,3.97
2022-10-09T20:24:06.185Z,5.82
2022-10-09T20:26:42.810Z,3.20
2022-10-09T20:29:12.910Z,4.00
2022-10-09T20:31:41.522Z,4.55
2022-10-09T20:34:09.235Z,5.47
2022-10-09T20:36:39.123Z,4.95
2022-10-09T20:39:19.516Z,5.22
2022-10-09T20:41:47.612Z,5.88
2022-10-09T20:44:15.130Z,5.63
2022-10-09T20:46:43.122Z,4.95
2022-10-09T20:49:13.663Z,5.00
2022-10-09T20:51:47.089Z,4.35
2022-10-09T20:54:19.834Z,4.10
2022-10-09T20:56:49.759Z,4.18
2022-10-09T20:59:18.218Z,5.07
2022-10-09T21:01:45.780Z,4.95
2022-10-09T21:04:15.812Z,4.40
2022-10-09T21:06:43.394Z,5.13
2022-10-09T21:09:13.499Z,4.43
2022-10-09T21:11:41.674Z,4.57
2022-10-09T21:14:10.508Z,4.78
2022-10-09T21:16:37.853Z,5.90
2022-10-09T21:19:08.360Z,5.38
2022-10-09T21:21:35.786Z,4.93
2022-10-09T21:24:06.558Z,4.82
2022-10-09T21:26:35.808Z,5.72
2022-10-09T21:29:05.318Z,4.80
2022-10-09T21:31:36.861Z,4.60
2022-10-09T21:34:04.465Z,4.47
2022-10-09T21:36:55.852Z,5.20
2022-10-09T21:39:29.087Z,4.35
2022-10-09T21:42:01.031Z,4.60
2022-10-09T21:44:28.660Z,5.95
2022-10-09T21:46:58.286Z,6.63
2022-10-09T21:49:28.256Z,4.43
2022-10-09T21:51:56.392Z,4.30
2022-10-09T21:54:23.804Z,4.88
2022-10-09T21:56:51.337Z,4.43
2022-10-09T21:59:18.989Z,4.10
2022-10-09T22:01:48.547Z,4.68
2022-10-09T22:04:17.042Z,4.57
2022-10-09T22:06:44.687Z,5.20
2022-10-09T22:09:12.219Z,5.07
2022-10-09T22:11:40.853Z,4.75
2022-10-09T22:14:08.397Z,4.18
2022-10-09T22:16:35.932Z,4.90
2022-10-09T22:19:05.486Z,4.47
2022-10-09T22:21:33.039Z,4.63
2022-10-09T22:24:01.186Z,4.57
2022-10-09T22:26:30.956Z,4.25
2022-10-09T22:28:58.662Z,4.32
2022-10-09T22:31:27.180Z,4.85
2022-10-09T22:33:58.166Z,4.35
2022-10-09T22:36:31.224Z,6.03
2022-10-09T22:39:02.094Z,4.35
2022-10-09T22:41:30.745Z,3.50
2022-10-09T22:44:01.566Z,4.30
2022-10-09T22:46:40.877Z,5.78
2022-10-09T22:49:13.440Z,4.03
2022-10-09T22:51:41.096Z,5.00
2022-10-09T22:54:09.242Z,4.40
2022-10-09T22:56:39.321Z,3.90
2022-10-09T22:59:09.803Z,4.40
2022-10-09T23:01:41.427Z,4.43
2022-10-09T23:04:12.609Z,4.60
2022-10-09T23:06:43.779Z,4.82
2022-10-09T23:09:13.575Z,3.70
2022-10-09T23:11:42.607Z,4.50
2022-10-09T23:14:11.191Z,4.78
2022-10-09T23:16:40.695Z,4.45
2022-10-09T23:19:08.973Z,4.47
2022-10-09T23:21:38.597Z,4.05
2022-10-09T23:24:12.270Z,4.07
2022-10-09T23:26:39.756Z,4.22
2022-10-09T23:29:31.816Z,4.55
2022-10-09T23:31:59.218Z,5.13
2022-10-09T23:34:29.298Z,4.13
2022-10-09T23:37:00.821Z,4.32
2022-10-09T23:39:28.350Z,4.78
2022-10-09T23:41:55.840Z,3.97
2022-10-09T23:44:23.160Z,4.53
2022-10-09T23:46:53.069Z,4.63
2022-10-09T23:49:20.623Z,4.32
2022-10-09T23:51:48.111Z,5.00
2022-10-09T23:54:15.633Z,4.32
2022-10-09T23:56:47.753Z,4.68
2022-10-09T23:59:15.374Z,5.60
